Time,TemperatureF,DewpointF,PressureIn,WindDirection,WindDirectionDegrees,WindSpeedMPH,WindSpeedGustMPH,Humidity,HourlyPrecipIn,Conditions,Clouds,dailyrainin,SoftwareType,DateUTC
2013-05-25 00:10:00,44.2,40.9,29.84,SW,236,5.0,0.0,88,0.00,,,0.00,WeatherDisplay:10.37,2013-05-25 04:10:00,
2013-05-25 00:20:00,44.1,41.0,29.83,WSW,241,0.0,0.0,89,0.00,,,0.00,WeatherDisplay:10.37,2013-05-25 04:20:00,
2013-05-25 00:30:00,44.1,41.0,29.83,SW,226,5.0,0.0,89,0.00,,,0.00,WeatherDisplay:10.37,2013-05-25 04:30:00,
2013-05-25 00:40:00,44.1,41.0,29.83,WSW,255,3.0,0.0,89,0.00,,,0.00,WeatherDisplay:10.37,2013-05-25 04:40:00,
2013-05-25 00:50:00,44.1,41.0,29.83,SW,232,0.0,0.0,89,0.00,,,0.00,WeatherDisplay:10.37,2013-05-25 04:50:00,
2013-05-25 00:59:00,44.1,41.0,29.82,WSW,249,0.0,0.0,89,0.00,,,0.00,WeatherDisplay:10.37,2013-05-25 04:59:00,
2013-05-25 01:10:00,44.1,41.0,29.82,SW,232,0.0,0.0,89,0.01,RA,RA,0.01,WeatherDisplay:10.37,2013-05-25 05:10:00,
2013-05-25 01:20:00,44.1,41.0,29.82,SW,235,0.0,0.0,89,0.01,RA,RA,0.02,WeatherDisplay:10.37,2013-05-25 05:20:00,
2013-05-25 01:30:00,44.1,41.0,29.82,WSW,239,0.0,0.0,89,0.00,,,0.02,WeatherDisplay:10.37,2013-05-25 05:30:00,
2013-05-25 01:40:00,44.0,40.9,29.81,WSW,239,1.0,0.0,89,0.00,,,0.02,WeatherDisplay:10.37,2013-05-25 05:40:00,
2013-05-25 01:50:00,43.9,40.8,29.81,WSW,256,0.0,0.0,89,0.00,,,0.02,WeatherDisplay:10.37,2013-05-25 05:50:00,
2013-05-25 01:59:00,44.1,41.0,29.81,SW,225,0.0,0.0,89,0.00,,,0.02,WeatherDisplay:10.37,2013-05-25 05:59:00,
2013-05-25 02:10:00,44.1,41.0,29.81,SSW,204,1.0,0.0,89,0.00,,,0.02,WeatherDisplay:10.37,2013-05-25 06:10:00,
2013-05-25 02:20:00,44.2,41.2,29.81,SSW,192,0.0,0.0,89,0.00,,,0.02,WeatherDisplay:10.37,2013-05-25 06:20:00,
2013-05-25 02:30:00,44.2,41.2,29.81,WSW,239,2.0,0.0,89,0.00,,,0.02,WeatherDisplay:10.37,2013-05-25 06:30:00,
2013-05-25 02:40:00,44.1,41.0,29.81,SSW,204,3.0,0.0,89,0.00,,,0.02,WeatherDisplay:10.37,2013-05-25 06:40:00,
2013-05-25 02:50:00,44.1,41.0,29.81,SW,220,0.0,0.0,89,0.00,,,0.02,WeatherDisplay:10.37,2013-05-25 06:50:00,
2013-05-25 02:59:00,44.1,41.0,29.81,SW,232,1.0,0.0,89,0.01,RA,RA,0.03,WeatherDisplay:10.37,2013-05-25 06:59:00,
2013-05-25 03:10:00,44.1,41.0,29.80,WSW,243,2.0,0.0,89,0.01,RA,RA,0.04,WeatherDisplay:10.37,2013-05-25 07:10:00,
2013-05-25 03:20:00,43.9,40.8,29.81,SW,220,5.0,0.0,89,0.00,,,0.04,WeatherDisplay:10.37,2013-05-25 07:20:00,
2013-05-25 03:30:00,43.7,41.0,29.79,SSW,212,3.0,0.0,90,0.00,,,0.04,WeatherDisplay:10.37,2013-05-25 07:30:00,
2013-05-25 03:40:00,43.7,41.0,29.79,SW,221,1.0,0.0,90,0.00,,,0.04,WeatherDisplay:10.37,2013-05-25 07:40:00,
2013-05-25 03:50:00,43.7,41.0,29.80,SW,217,1.0,0.0,90,0.00,,,0.04,WeatherDisplay:10.37,2013-05-25 07:50:00,
2013-05-25 03:59:00,43.7,41.0,29.79,WSW,245,1.0,0.0,90,0.00,,,0.04,WeatherDisplay:10.37,2013-05-25 07:59:00,
2013-05-25 04:10:00,43.6,40.9,29.81,SW,217,5.0,0.0,90,0.01,RA,RA,0.05,WeatherDisplay:10.37,2013-05-25 08:10:00,
2013-05-25 04:20:00,43.5,40.8,29.81,SW,217,2.0,0.0,90,0.00,,,0.05,WeatherDisplay:10.37,2013-05-25 08:20:00,
2013-05-25 04:30:00,43.5,40.8,29.81,SW,235,2.0,0.0,90,0.01,RA,RA,0.06,WeatherDisplay:10.37,2013-05-25 08:30:00,
2013-05-25 04:40:00,43.3,40.6,29.79,SSW,196,3.0,0.0,90,0.01,RA,RA,0.07,WeatherDisplay:10.37,2013-05-25 08:40:00,
2013-05-25 04:50:00,43.3,40.6,29.79,SW,221,6.0,0.0,90,0.01,RA,RA,0.08,WeatherDisplay:10.37,2013-05-25 08:50:00,
2013-05-25 04:59:00,43.2,40.4,29.79,SW,230,2.0,0.0,90,0.00,,,0.08,WeatherDisplay:10.37,2013-05-25 08:59:00,
2013-05-25 05:10:00,43.2,40.4,29.79,SW,229,2.0,0.0,90,0.00,,,0.08,WeatherDisplay:10.37,2013-05-25 09:10:00,
2013-05-25 05:20:00,43.2,40.4,29.78,SW,234,2.0,0.0,90,0.00,,,0.08,WeatherDisplay:10.37,2013-05-25 09:20:00,
2013-05-25 05:30:00,43.3,40.6,29.79,WSW,255,3.0,0.0,90,0.00,,,0.08,WeatherDisplay:10.37,2013-05-25 09:30:00,
2013-05-25 05:40:00,43.2,40.4,29.78,SW,233,1.0,0.0,90,0.00,,,0.08,WeatherDisplay:10.37,2013-05-25 09:40:00,
2013-05-25 05:50:00,43.2,40.4,29.77,SW,229,0.0,0.0,90,0.00,,,0.08,WeatherDisplay:10.37,2013-05-25 09:50:00,
2013-05-25 05:59:00,43.2,40.4,29.77,WSW,257,0.0,0.0,90,0.00,,,0.08,WeatherDisplay:10.37,2013-05-25 09:59:00,
2013-05-25 06:10:00,43.2,40.4,29.78,WSW,239,1.0,0.0,90,0.01,RA,RA,0.09,WeatherDisplay:10.37,2013-05-25 10:10:00,
2013-05-25 06:20:00,43.2,40.4,29.78,WSW,244,1.0,0.0,90,0.00,,,0.09,WeatherDisplay:10.37,2013-05-25 10:20:00,
2013-05-25 06:30:00,43.2,40.4,29.79,SSW,202,0.0,0.0,90,0.00,,,0.09,WeatherDisplay:10.37,2013-05-25 10:30:00,
2013-05-25 06:40:00,43.2,40.4,29.81,WSW,246,7.0,0.0,90,0.00,,,0.09,WeatherDisplay:10.37,2013-05-25 10:40:00,
2013-05-25 06:50:00,43.1,40.4,29.81,SW,220,2.0,0.0,90,0.00,,,0.09,WeatherDisplay:10.37,2013-05-25 10:50:00,
2013-05-25 06:59:00,43.2,40.4,29.81,SSW,192,1.0,0.0,90,0.00,,,0.09,WeatherDisplay:10.37,2013-05-25 10:59:00,
2013-05-25 07:10:00,43.3,40.6,29.79,WSW,238,1.0,0.0,90,0.01,RA,RA,0.10,WeatherDisplay:10.37,2013-05-25 11:10:00,
2013-05-25 07:20:00,43.3,40.6,29.79,SW,227,0.0,0.0,90,0.00,,,0.10,WeatherDisplay:10.37,2013-05-25 11:20:00,
2013-05-25 07:30:00,43.5,40.8,29.79,SW,223,1.0,0.0,90,0.00,,,0.10,WeatherDisplay:10.37,2013-05-25 11:30:00,
2013-05-25 07:40:00,43.5,40.8,29.80,SSW,207,0.0,0.0,90,0.00,,,0.10,WeatherDisplay:10.37,2013-05-25 11:40:00,
2013-05-25 07:50:00,43.7,41.0,29.81,SW,216,0.0,0.0,90,0.00,,,0.10,WeatherDisplay:10.37,2013-05-25 11:50:00,
2013-05-25 07:59:00,43.7,41.0,29.79,SW,224,6.0,0.0,90,0.00,,,0.10,WeatherDisplay:10.37,2013-05-25 11:59:00,
2013-05-25 08:10:00,43.7,41.0,29.79,SW,227,5.0,0.0,90,0.00,,,0.10,WeatherDisplay:10.37,2013-05-25 12:10:00,
2013-05-25 08:20:00,44.2,41.5,29.79,SW,214,0.0,0.0,90,0.00,,,0.10,WeatherDisplay:10.37,2013-05-25 12:20:00,
2013-05-25 08:30:00,44.1,41.3,29.79,SW,217,5.0,0.0,90,0.00,,,0.10,WeatherDisplay:10.37,2013-05-25 12:30:00,
2013-05-25 08:40:00,44.1,41.3,29.78,SW,231,0.0,0.0,90,0.00,,,0.10,WeatherDisplay:10.37,2013-05-25 12:40:00,
2013-05-25 08:50:00,44.0,41.2,29.78,WSW,242,3.0,0.0,90,0.01,RA,RA,0.11,WeatherDisplay:10.37,2013-05-25 12:50:00,
2013-05-25 08:59:00,43.9,41.1,29.78,WSW,244,3.0,0.0,90,0.00,,,0.11,WeatherDisplay:10.37,2013-05-25 12:59:00,
2013-05-25 09:10:00,43.7,41.0,29.78,SW,226,1.0,0.0,90,0.00,,,0.11,WeatherDisplay:10.37,2013-05-25 13:10:00,
2013-05-25 09:20:00,43.8,41.1,29.78,WSW,240,3.0,0.0,90,0.00,,,0.11,WeatherDisplay:10.37,2013-05-25 13:20:00,
2013-05-25 09:30:00,43.9,41.1,29.77,SSW,200,0.0,0.0,90,0.00,,,0.11,WeatherDisplay:10.37,2013-05-25 13:30:00,
2013-05-25 09:40:00,44.1,41.3,29.77,SW,230,1.0,0.0,90,0.01,RA,RA,0.12,WeatherDisplay:10.37,2013-05-25 13:40:00,
2013-05-25 09:50:00,44.1,41.3,29.77,SW,232,1.0,0.0,90,0.00,,,0.12,WeatherDisplay:10.37,2013-05-25 13:50:00,
2013-05-25 09:59:00,44.2,41.5,29.77,SW,220,1.0,0.0,90,0.01,RA,RA,0.13,WeatherDisplay:10.37,2013-05-25 13:59:00,
2013-05-25 10:10:00,44.1,41.4,29.77,SW,233,0.0,0.0,90,0.00,,,0.13,WeatherDisplay:10.37,2013-05-25 14:10:00,
2013-05-25 10:20:00,44.2,41.5,29.77,SW,232,0.0,0.0,90,0.01,RA,RA,0.14,WeatherDisplay:10.37,2013-05-25 14:20:00,
2013-05-25 10:30:00,44.8,42.1,29.77,SW,220,1.0,0.0,90,0.00,,,0.14,WeatherDisplay:10.37,2013-05-25 14:30:00,
2013-05-25 10:40:00,45.2,42.5,29.77,SW,228,1.0,0.0,90,0.00,,,0.14,WeatherDisplay:10.37,2013-05-25 14:40:00,
2013-05-25 10:50:00,45.0,42.2,29.77,SW,225,5.0,0.0,90,0.00,,,0.14,WeatherDisplay:10.37,2013-05-25 14:50:00,
2013-05-25 10:59:00,44.9,42.1,29.76,SW,225,1.0,0.0,90,0.00,,,0.14,WeatherDisplay:10.37,2013-05-25 14:59:00,
2013-05-25 11:10:00,44.6,41.8,29.77,SW,227,0.0,0.0,90,0.00,,,0.14,WeatherDisplay:10.37,2013-05-25 15:10:00,
2013-05-25 11:20:00,44.3,41.6,29.76,WSW,247,1.0,0.0,90,0.00,,,0.14,WeatherDisplay:10.37,2013-05-25 15:20:00,
2013-05-25 11:30:00,44.2,41.5,29.76,SW,218,0.0,0.0,90,0.01,RA,RA,0.15,WeatherDisplay:10.37,2013-05-25 15:30:00,
2013-05-25 11:40:00,44.6,41.8,29.75,SW,225,2.0,0.0,90,0.00,,,0.15,WeatherDisplay:10.37,2013-05-25 15:40:00,
2013-05-25 11:50:00,44.6,41.8,29.75,SW,229,0.0,0.0,90,0.00,,,0.15,WeatherDisplay:10.37,2013-05-25 15:50:00,
2013-05-25 11:59:00,45.0,42.3,29.75,SSW,213,5.0,0.0,90,0.00,,,0.15,WeatherDisplay:10.37,2013-05-25 15:59:00,
2013-05-25 12:10:00,45.0,42.2,29.75,SW,226,5.0,0.0,90,0.01,RA,RA,0.16,WeatherDisplay:10.37,2013-05-25 16:10:00,
2013-05-25 12:20:00,44.8,42.1,29.75,SW,223,0.0,0.0,90,0.00,,,0.16,WeatherDisplay:10.37,2013-05-25 16:20:00,
2013-05-25 12:30:00,44.8,42.0,29.75,WSW,240,1.0,0.0,90,0.00,,,0.16,WeatherDisplay:10.37,2013-05-25 16:30:00,
2013-05-25 12:40:00,45.0,42.2,29.75,SW,221,1.0,0.0,90,0.00,,,0.16,WeatherDisplay:10.37,2013-05-25 16:40:00,
2013-05-25 12:50:00,45.1,42.4,29.75,SW,216,5.0,0.0,90,0.00,,,0.16,WeatherDisplay:10.37,2013-05-25 16:50:00,
2013-05-25 12:59:00,45.1,42.4,29.75,West,276,0.0,0.0,90,0.00,,,0.16,WeatherDisplay:10.37,2013-05-25 16:59:00,
2013-05-25 13:10:00,45.4,42.6,29.75,SW,224,2.0,0.0,90,0.00,,,0.16,WeatherDisplay:10.37,2013-05-25 17:10:00,
2013-05-25 13:20:00,45.2,42.4,29.75,SW,227,1.0,0.0,90,0.00,,,0.16,WeatherDisplay:10.37,2013-05-25 17:20:00,
2013-05-25 13:30:00,45.0,42.2,29.75,WSW,243,3.0,0.0,90,0.00,,,0.16,WeatherDisplay:10.37,2013-05-25 17:30:00,
2013-05-25 13:40:00,44.6,41.8,29.75,SW,230,3.0,0.0,90,0.01,RA,RA,0.17,WeatherDisplay:10.37,2013-05-25 17:40:00,
2013-05-25 13:50:00,44.2,41.5,29.75,SW,223,1.0,0.0,90,0.00,,,0.17,WeatherDisplay:10.37,2013-05-25 17:50:00,
2013-05-25 13:59:00,44.2,41.5,29.75,SSW,211,1.0,0.0,90,0.00,,,0.17,WeatherDisplay:10.37,2013-05-25 17:59:00,
2013-05-25 14:10:00,44.3,41.5,29.75,WSW,244,5.0,0.0,90,0.00,,,0.17,WeatherDisplay:10.37,2013-05-25 18:10:00,
2013-05-25 14:20:00,44.2,41.5,29.75,WSW,240,3.0,0.0,90,0.00,,,0.17,WeatherDisplay:10.37,2013-05-25 18:20:00,
2013-05-25 14:30:00,44.2,41.5,29.75,SW,220,3.0,0.0,90,0.00,,,0.17,WeatherDisplay:10.37,2013-05-25 18:30:00,
2013-05-25 14:40:00,44.2,41.5,29.75,SSW,205,0.0,0.0,90,0.00,,,0.17,WeatherDisplay:10.37,2013-05-25 18:40:00,
2013-05-25 14:50:00,44.1,41.3,29.75,SW,214,6.0,0.0,90,0.01,RA,RA,0.18,WeatherDisplay:10.37,2013-05-25 18:50:00,
2013-05-25 14:59:00,43.5,40.8,29.75,SW,226,5.0,0.0,90,0.00,,,0.18,WeatherDisplay:10.37,2013-05-25 18:59:00,
2013-05-25 15:10:00,43.3,40.6,29.74,SSW,213,3.0,0.0,90,0.00,,,0.18,WeatherDisplay:10.37,2013-05-25 19:10:00,
2013-05-25 15:20:00,43.5,40.8,29.74,SW,228,1.0,0.0,90,0.00,,,0.18,WeatherDisplay:10.37,2013-05-25 19:20:00,
2013-05-25 15:30:00,43.1,40.4,29.74,WSW,248,6.0,0.0,90,0.00,,,0.18,WeatherDisplay:10.37,2013-05-25 19:30:00,
2013-05-25 15:40:00,42.8,40.1,29.75,SW,230,5.0,0.0,90,0.00,,,0.18,WeatherDisplay:10.37,2013-05-25 19:40:00,
2013-05-25 15:50:00,42.2,39.5,29.75,WSW,245,5.0,0.0,90,0.00,,,0.18,WeatherDisplay:10.37,2013-05-25 19:50:00,
2013-05-25 15:59:00,42.2,39.5,29.74,SW,217,0.0,0.0,90,0.00,,,0.18,WeatherDisplay:10.37,2013-05-25 19:59:00,
2013-05-25 16:10:00,42.3,39.5,29.74,South,190,2.0,0.0,90,0.00,,,0.18,WeatherDisplay:10.37,2013-05-25 20:10:00,
2013-05-25 16:20:00,41.8,39.1,29.74,SW,234,1.0,0.0,90,0.00,,,0.18,WeatherDisplay:10.37,2013-05-25 20:20:00,
2013-05-25 16:30:00,41.5,38.5,29.73,WSW,240,0.0,0.0,89,0.00,,,0.18,WeatherDisplay:10.37,2013-05-25 20:30:00,
2013-05-25 16:40:00,41.5,38.5,29.73,SSW,212,1.0,0.0,89,0.00,,,0.18,WeatherDisplay:10.37,2013-05-25 20:40:00,
2013-05-25 16:50:00,41.4,38.4,29.74,SW,218,0.0,0.0,89,0.00,,,0.18,WeatherDisplay:10.37,2013-05-25 20:50:00,
2013-05-25 16:59:00,41.2,38.2,29.74,SSW,203,0.0,0.0,89,0.00,,,0.18,WeatherDisplay:10.37,2013-05-25 20:59:00,
2013-05-25 17:10:00,40.8,37.8,29.75,SW,214,1.0,0.0,89,0.00,,,0.18,WeatherDisplay:10.37,2013-05-25 21:10:00,
2013-05-25 17:20:00,40.5,37.5,29.74,SW,216,6.0,0.0,89,0.00,,,0.18,WeatherDisplay:10.37,2013-05-25 21:20:00,
2013-05-25 17:30:00,40.5,37.5,29.74,SW,222,0.0,0.0,89,0.00,,,0.18,WeatherDisplay:10.37,2013-05-25 21:30:00,
2013-05-25 17:40:00,40.1,37.1,29.74,SSW,196,1.0,0.0,89,0.00,,,0.18,WeatherDisplay:10.37,2013-05-25 21:40:00,
2013-05-25 17:50:00,39.8,36.9,29.74,SW,230,6.0,0.0,89,0.00,,,0.18,WeatherDisplay:10.37,2013-05-25 21:50:00,
2013-05-25 17:59:00,39.6,36.9,29.73,SW,227,2.0,0.0,90,0.00,,,0.18,WeatherDisplay:10.37,2013-05-25 21:59:00,
2013-05-25 18:10:00,39.4,36.7,29.73,SW,218,6.0,0.0,90,0.00,,,0.18,WeatherDisplay:10.37,2013-05-25 22:10:00,
2013-05-25 18:20:00,39.2,36.2,29.73,SW,231,5.0,0.0,89,0.00,,,0.18,WeatherDisplay:10.37,2013-05-25 22:20:00,
2013-05-25 18:30:00,39.1,36.1,29.74,SW,226,2.0,0.0,89,0.01,RA,RA,0.19,WeatherDisplay:10.37,2013-05-25 22:30:00,
2013-05-25 18:40:00,39.0,36.1,29.75,SW,230,2.0,0.0,89,0.00,,,0.19,WeatherDisplay:10.37,2013-05-25 22:40:00,
2013-05-25 18:50:00,39.2,36.2,29.75,SSW,194,5.0,0.0,89,0.00,,,0.19,WeatherDisplay:10.37,2013-05-25 22:50:00,
2013-05-25 18:59:00,38.8,36.2,29.75,SW,221,2.0,0.0,90,0.00,,,0.19,WeatherDisplay:10.37,2013-05-25 22:59:00,
2013-05-25 19:10:00,38.8,36.2,29.74,SSW,209,5.0,0.0,90,0.00,,,0.19,WeatherDisplay:10.37,2013-05-25 23:10:00,
2013-05-25 19:20:00,38.8,36.2,29.75,WSW,240,6.0,0.0,90,0.00,,,0.19,WeatherDisplay:10.37,2013-05-25 23:20:00,
2013-05-25 19:30:00,38.8,36.2,29.75,SSW,197,2.0,0.0,90,0.00,,,0.19,WeatherDisplay:10.37,2013-05-25 23:30:00,
2013-05-25 19:40:00,38.8,36.2,29.75,SSW,199,0.0,0.0,90,0.00,,,0.19,WeatherDisplay:10.37,2013-05-25 23:40:00,
2013-05-25 19:50:00,38.8,36.2,29.75,SSE,165,2.0,0.0,90,0.00,,,0.19,WeatherDisplay:10.37,2013-05-25 23:50:00,
2013-05-25 19:59:00,38.8,35.9,29.75,WSW,241,7.0,0.0,89,0.00,,,0.19,WeatherDisplay:10.37,2013-05-25 23:59:00,
2013-05-25 20:10:00,38.7,35.7,29.75,SW,219,2.0,0.0,89,0.00,,,0.19,WeatherDisplay:10.37,2013-05-26 00:10:00,
2013-05-25 20:20:00,38.8,35.8,29.75,South,189,7.0,0.0,89,0.00,,,0.19,WeatherDisplay:10.37,2013-05-26 00:20:00,
2013-05-25 20:30:00,38.7,35.7,29.75,SW,214,2.0,0.0,89,0.00,,,0.19,WeatherDisplay:10.37,2013-05-26 00:30:00,
2013-05-25 20:40:00,38.7,35.7,29.76,SSW,213,3.0,0.0,89,0.00,,,0.19,WeatherDisplay:10.37,2013-05-26 00:40:00,
2013-05-25 20:50:00,38.5,35.5,29.75,SW,218,3.0,0.0,89,0.00,,,0.19,WeatherDisplay:10.37,2013-05-26 00:50:00,
2013-05-25 20:59:00,38.1,35.2,29.75,SSW,209,5.0,0.0,89,0.00,,,0.19,WeatherDisplay:10.37,2013-05-26 00:59:00,
2013-05-25 21:10:00,38.1,35.2,29.75,SW,219,3.0,0.0,89,0.00,,,0.19,WeatherDisplay:10.37,2013-05-26 01:10:00,
2013-05-25 21:20:00,37.9,35.0,29.75,SW,217,0.0,0.0,89,0.00,,,0.19,WeatherDisplay:10.37,2013-05-26 01:20:00,
2013-05-25 21:30:00,37.9,35.0,29.75,South,189,3.0,0.0,89,0.00,,,0.19,WeatherDisplay:10.37,2013-05-26 01:30:00,
2013-05-25 21:40:00,37.8,34.8,29.75,SSW,212,1.0,0.0,89,0.00,,,0.19,WeatherDisplay:10.37,2013-05-26 01:40:00,
2013-05-25 21:50:00,37.6,34.6,29.76,SW,230,1.0,0.0,89,0.00,,,0.19,WeatherDisplay:10.37,2013-05-26 01:50:00,
2013-05-25 21:59:00,37.4,34.5,29.75,SW,221,2.0,0.0,89,0.00,,,0.19,WeatherDisplay:10.37,2013-05-26 01:59:00,
2013-05-25 22:10:00,37.0,34.1,29.76,SSW,204,1.0,0.0,89,0.00,,,0.19,WeatherDisplay:10.37,2013-05-26 02:10:00,
2013-05-25 22:20:00,36.9,33.9,29.75,SW,227,2.0,0.0,89,0.00,,,0.19,WeatherDisplay:10.37,2013-05-26 02:20:00,
2013-05-25 22:30:00,36.9,33.9,29.75,SW,219,7.0,0.0,89,0.00,,,0.19,WeatherDisplay:10.37,2013-05-26 02:30:00,
2013-05-25 22:40:00,36.4,33.5,29.75,SSW,208,3.0,0.0,89,0.00,,,0.19,WeatherDisplay:10.37,2013-05-26 02:40:00,
2013-05-25 22:50:00,36.0,33.0,29.75,WSW,255,2.0,0.0,89,0.00,,,0.19,WeatherDisplay:10.37,2013-05-26 02:50:00,
2013-05-25 22:59:00,35.2,32.3,29.75,SSW,195,8.0,0.0,89,0.01,RA,RA,0.20,WeatherDisplay:10.37,2013-05-26 02:59:00,
2013-05-25 23:10:00,35.0,32.1,29.74,SW,232,1.0,0.0,89,0.00,,,0.20,WeatherDisplay:10.37,2013-05-26 03:10:00,
2013-05-25 23:20:00,34.3,31.2,29.73,SW,225,5.0,0.0,88,0.00,,,0.20,WeatherDisplay:10.37,2013-05-26 03:20:00,
2013-05-25 23:30:00,34.3,31.4,29.73,South,177,0.0,0.0,89,0.00,,,0.20,WeatherDisplay:10.37,2013-05-26 03:30:00,
2013-05-25 23:40:00,34.3,31.4,29.73,SW,228,0.0,0.0,89,0.00,,,0.20,WeatherDisplay:10.37,2013-05-26 03:40:00,
2013-05-25 23:50:00,34.5,31.6,29.73,SW,218,6.0,0.0,89,0.00,,,0.20,WeatherDisplay:10.37,2013-05-26 03:50:00,
2013-05-25 23:59:00,34.7,31.8,29.73,SSW,195,3.0,0.0,89,0.01,RA,RA,0.00,WeatherDisplay:10.37,2013-05-26 03:59:00,